Time;durP1;ratioP1;P1;durP2;ratioP2;P2;SDS_P1;SDS_P2;PMS_P1;PMS_P2;Temp;Humidity;BMP_temperature;BMP_pressure;BME280_temperature;BME280_humidity;BME280_pressure;Samples;Min_cycle;Max_cycle;Signal;HPM_P1;HPM_P2
2022/10/23 00:02:20;;;;;;;12.60;9.80;;;;;;;11.83;100.00;96876.98;105169;1300;22509;-77
2022/10/23 00:04:53;;;;;;;14.90;11.90;;;;;;;11.84;100.00;96886.48;105168;1304;22594;-77
2022/10/23 00:07:24;;;;;;;13.60;11.80;;;;;;;11.84;100.00;96889.82;105089;1306;23263;-77
2022/10/23 00:09:55;;;;;;;13.80;12.10;;;;;;;11.83;100.00;96886.23;105089;1305;22477;-77
2022/10/23 00:12:27;;;;;;;14.50;11.50;;;;;;;11.82;100.00;96885.05;105095;1306;26390;-76
2022/10/23 00:14:58;;;;;;;13.20;11.60;;;;;;;11.82;100.00;96885.27;105115;1281;22473;-77
2022/10/23 00:17:31;;;;;;;12.80;11.30;;;;;;;11.83;100.00;96890.57;105091;1291;23694;-77
2022/10/23 00:20:03;;;;;;;13.00;10.90;;;;;;;11.83;100.00;96891.52;105094;1305;22476;-78
2022/10/23 00:22:34;;;;;;;15.40;11.30;;;;;;;11.82;100.00;96889.94;105116;1306;24382;-77
2022/10/23 00:25:10;;;;;;;14.40;11.80;;;;;;;11.84;100.00;96892.42;105102;1291;23938;-77
2022/10/23 00:27:41;;;;;;;14.80;11.10;;;;;;;11.84;100.00;96893.43;105051;1291;24056;-77
2022/10/23 00:30:14;;;;;;;13.70;12.30;;;;;;;11.84;100.00;96900.40;105101;1306;26556;-77
2022/10/23 00:32:45;;;;;;;12.20;10.90;;;;;;;11.83;100.00;96906.95;105107;1306;22494;-77
2022/10/23 00:35:16;;;;;;;12.50;11.10;;;;;;;11.82;100.00;96918.04;105123;1284;22619;-77
2022/10/23 00:37:47;;;;;;;13.60;9.20;;;;;;;11.82;100.00;96918.58;105054;1294;22467;-77
2022/10/23 00:40:18;;;;;;;16.00;11.80;;;;;;;11.84;100.00;96922.02;105086;1298;22476;-77
2022/10/23 00:42:49;;;;;;;15.20;10.50;;;;;;;11.85;100.00;96922.48;105072;1297;22506;-77
2022/10/23 00:45:25;;;;;;;14.10;10.60;;;;;;;11.86;100.00;96926.77;105092;1306;22462;-77
2022/10/23 00:47:57;;;;;;;17.20;13.10;;;;;;;11.88;100.00;96926.05;105092;1306;31818;-77
2022/10/23 00:50:30;;;;;;;16.30;13.20;;;;;;;11.89;100.00;96927.91;105103;1288;22516;-77
2022/10/23 00:53:05;;;;;;;14.10;11.40;;;;;;;11.87;100.00;96931.70;105182;1299;22535;-77
2022/10/23 00:55:38;;;;;;;11.50;9.30;;;;;;;11.88;100.00;96930.58;105075;1298;22510;-77
2022/10/23 00:58:09;;;;;;;17.50;13.80;;;;;;;11.89;100.00;96934.88;105099;1291;22500;-77
2022/10/23 01:00:50;;;;;;;14.30;11.70;;;;;;;11.90;100.00;96936.31;105135;1298;22472;-77
2022/10/23 01:03:20;;;;;;;;;;;;;;;11.89;100.00;96931.10;105130;1299;22463;-77
2022/10/23 01:05:54;;;;;;;;;;;;;;;11.92;100.00;96933.31;105069;1285;23732;-77
2022/10/23 01:08:32;;;;;;;13.40;10.00;;;;;;;11.94;100.00;96936.41;105254;1296;22482;-77
2022/10/23 01:11:10;;;;;;;12.00;10.20;;;;;;;11.97;100.00;96932.20;105069;1305;22468;-77
2022/10/23 01:13:51;;;;;;;12.10;10.40;;;;;;;11.98;100.00;96932.05;105129;1306;26548;-78
2022/10/23 01:16:30;;;;;;;12.10;10.70;;;;;;;11.97;100.00;96934.66;105135;1289;22545;-77
2022/10/23 01:19:10;;;;;;;12.90;9.90;;;;;;;11.98;100.00;96933.86;105213;1297;22493;-77
2022/10/23 01:21:55;;;;;;;12.20;9.70;;;;;;;11.94;100.00;96936.73;105160;1302;24495;-77
2022/10/23 01:24:42;;;;;;;11.40;9.60;;;;;;;11.91;100.00;96940.64;105196;1292;23947;-77
2022/10/23 01:27:23;;;;;;;13.80;9.00;;;;;;;11.89;100.00;96942.10;105101;1297;22468;-78
2022/10/23 01:30:04;;;;;;;11.20;9.50;;;;;;;11.91;100.00;96947.66;105146;1291;25358;-77
2022/10/23 01:32:44;;;;;;;12.20;8.80;;;;;;;11.89;100.00;96943.64;104970;1306;171164;-77
2022/10/23 01:35:20;;;;;;;11.20;8.40;;;;;;;11.89;100.00;96943.38;105121;1290;25723;-77
2022/10/23 01:37:59;;;;;;;10.00;8.80;;;;;;;11.90;100.00;96943.69;105029;1281;22874;-77
2022/10/23 01:40:37;;;;;;;10.40;7.20;;;;;;;11.88;100.00;96949.59;105109;1290;25280;-77
2022/10/23 01:43:13;;;;;;;10.80;7.80;;;;;;;11.90;100.00;96950.12;105093;1291;22507;-77
2022/10/23 01:45:47;;;;;;;11.90;8.40;;;;;;;11.93;100.00;96959.81;105044;1297;31995;-77
2022/10/23 01:48:23;;;;;;;11.50;8.10;;;;;;;11.92;100.00;96957.59;105110;1298;22465;-77
2022/10/23 01:50:57;;;;;;;11.10;8.80;;;;;;;11.93;100.00;96959.86;105104;1301;22548;-78
2022/10/23 01:53:30;;;;;;;9.60;8.20;;;;;;;11.91;100.00;96964.61;105105;1299;22922;-77
2022/10/23 01:56:03;;;;;;;10.20;8.00;;;;;;;11.87;100.00;96963.00;105050;1306;22504;-77
2022/10/23 01:58:36;;;;;;;10.60;7.70;;;;;;;11.85;100.00;96959.30;105063;1306;22461;-78
2022/10/23 02:01:11;;;;;;;8.10;7.30;;;;;;;11.83;100.00;96955.50;105111;1305;22601;-77
2022/10/23 02:03:44;;;;;;;10.10;7.20;;;;;;;11.82;100.00;96952.52;105127;1297;25234;-77
2022/10/23 02:06:16;;;;;;;9.20;6.60;;;;;;;11.81;100.00;96955.59;105019;1290;25360;-77
2022/10/23 02:08:47;;;;;;;8.70;7.30;;;;;;;11.80;100.00;96955.92;105064;1306;22484;-77
2022/10/23 02:11:20;;;;;;;7.80;6.80;;;;;;;11.78;100.00;96954.48;105116;1299;22518;-77
2022/10/23 02:13:56;;;;;;;9.20;6.60;;;;;;;11.76;100.00;96954.92;105077;1306;24404;-77
2022/10/23 02:16:37;;;;;;;8.10;7.20;;;;;;;11.74;100.00;96960.89;105098;1298;22541;-77
2022/10/23 02:19:16;;;;;;;8.60;7.30;;;;;;;11.71;100.00;96962.35;105175;1299;22519;-77
2022/10/23 02:21:57;;;;;;;10.50;8.00;;;;;;;11.69;100.00;96964.55;105185;1281;22466;-77
2022/10/23 02:24:33;;;;;;;8.60;7.20;;;;;;;11.67;100.00;96975.90;105173;1306;24383;-77
2022/10/23 02:27:10;;;;;;;11.50;7.30;;;;;;;11.63;100.00;96976.05;105095;1304;22472;-77
2022/10/23 02:29:50;;;;;;;7.70;6.60;;;;;;;11.59;100.00;96973.42;105082;1284;26541;-77
2022/10/23 02:32:25;;;;;;;8.70;7.40;;;;;;;11.53;100.00;96972.43;105107;1304;23824;-77
2022/10/23 02:34:58;;;;;;;9.40;7.50;;;;;;;11.50;100.00;96977.27;105086;1306;22464;-77
2022/10/23 02:37:29;;;;;;;10.10;7.40;;;;;;;11.45;100.00;96980.83;105046;1298;22486;-77
2022/10/23 02:40:02;;;;;;;8.70;7.10;;;;;;;11.41;100.00;96980.96;105110;1291;22515;-77
2022/10/23 02:42:42;;;;;;;10.20;7.80;;;;;;;11.36;100.00;96978.05;105098;1291;25200;-77
2022/10/23 02:45:24;;;;;;;7.80;6.90;;;;;;;11.33;100.00;96973.67;105080;1306;22457;-77
2022/10/23 02:48:05;;;;;;;10.50;8.50;;;;;;;11.31;100.00;96977.04;105064;1306;30388;-77
2022/10/23 02:50:44;;;;;;;9.60;7.30;;;;;;;11.31;100.00;96978.99;105124;1306;22510;-77
2022/10/23 02:53:20;;;;;;;7.30;6.60;;;;;;;11.28;100.00;96976.72;105090;1285;22517;-77
2022/10/23 02:56:03;;;;;;;10.20;7.00;;;;;;;11.26;100.00;96976.77;105062;1281;23795;-77
2022/10/23 02:58:43;;;;;;;8.30;7.30;;;;;;;11.30;100.00;96969.77;105066;1284;22476;-77
2022/10/23 03:01:20;;;;;;;9.30;7.10;;;;;;;11.37;100.00;96972.95;105109;1306;25192;-77
2022/10/23 03:03:55;;;;;;;7.80;6.90;;;;;;;11.35;100.00;96973.76;105107;1300;22493;-77
2022/10/23 03:06:27;;;;;;;8.90;7.00;;;;;;;11.32;100.00;96973.14;105057;1306;22585;-77
2022/10/23 03:09:04;;;;;;;10.80;7.80;;;;;;;11.31;100.00;96979.84;105090;1306;22485;-77
2022/10/23 03:11:36;;;;;;;8.20;7.20;;;;;;;11.28;100.00;96982.09;105135;1293;24258;-77
2022/10/23 03:14:07;;;;;;;8.60;7.20;;;;;;;11.26;100.00;96985.98;105117;1281;28009;-77
2022/10/23 03:16:38;;;;;;;9.00;6.70;;;;;;;11.27;100.00;96990.31;105066;1291;23134;-78
2022/10/23 03:19:09;;;;;;;9.10;7.50;;;;;;;11.29;100.00;96992.75;105108;1304;22525;-78
2022/10/23 03:21:40;;;;;;;7.90;6.90;;;;;;;11.32;100.00;96994.91;105081;1291;22518;-77
2022/10/23 03:24:14;;;;;;;9.90;8.30;;;;;;;11.34;100.00;96998.98;105103;1281;23266;-77
2022/10/23 03:26:45;;;;;;;8.80;7.00;;;;;;;11.32;100.00;96994.05;105040;1303;22452;-77
2022/10/23 03:29:16;;;;;;;7.80;7.00;;;;;;;11.28;100.00;96989.89;105105;1306;23278;-77
2022/10/23 03:31:47;;;;;;;9.60;6.90;;;;;;;11.23;100.00;96993.19;105077;1306;22488;-77
2022/10/23 03:34:18;;;;;;;8.50;7.40;;;;;;;11.17;100.00;96992.11;105112;1284;25480;-78
2022/10/23 03:36:49;;;;;;;8.90;6.60;;;;;;;11.13;100.00;96999.41;105057;1303;22469;-78
2022/10/23 03:39:21;;;;;;;7.30;6.40;;;;;;;11.12;100.00;96998.45;105102;1306;24200;-77
2022/10/23 03:41:52;;;;;;;7.50;6.60;;;;;;;11.11;100.00;97001.25;105086;1306;22516;-78
2022/10/23 03:44:23;;;;;;;7.80;6.20;;;;;;;11.12;100.00;97002.38;105101;1297;22538;-77
2022/10/23 03:46:55;;;;;;;8.60;7.10;;;;;;;11.14;100.00;96996.38;105081;1295;24313;-77
2022/10/23 03:49:26;;;;;;;9.60;7.10;;;;;;;11.15;100.00;96993.61;105204;1284;22603;-77
2022/10/23 03:51:58;;;;;;;8.00;7.20;;;;;;;11.16;100.00;96998.77;105213;1297;25220;-77
2022/10/23 03:54:30;;;;;;;8.10;6.80;;;;;;;11.14;100.00;96997.80;105165;1288;22455;-77
2022/10/23 03:57:04;;;;;;;9.30;6.00;;;;;;;11.12;100.00;96998.45;105101;1298;25317;-77
2022/10/23 03:59:35;;;;;;;8.70;6.40;;;;;;;11.10;100.00;96999.29;105127;1306;22722;-77
2022/10/23 04:02:06;;;;;;;7.70;6.30;;;;;;;11.07;100.00;97005.58;105106;1305;22458;-77
2022/10/23 04:04:37;;;;;;;7.10;5.90;;;;;;;11.05;100.00;97005.43;105125;1282;22548;-77
2022/10/23 04:07:08;;;;;;;7.50;6.50;;;;;;;11.06;100.00;97005.74;105084;1282;22541;-77
2022/10/23 04:09:39;;;;;;;8.60;6.50;;;;;;;11.06;100.00;97006.27;105199;1298;22501;-77
2022/10/23 04:12:10;;;;;;;7.70;6.20;;;;;;;11.07;100.00;97008.92;105225;1306;24250;-77
2022/10/23 04:14:41;;;;;;;7.80;5.60;;;;;;;11.10;100.00;97010.39;105198;1304;22464;-77
2022/10/23 04:17:12;;;;;;;6.80;5.60;;;;;;;11.12;100.00;97007.53;105115;1306;25380;-77
2022/10/23 04:19:45;;;;;;;8.30;6.40;;;;;;;11.13;100.00;97002.48;105121;1285;22471;-77
2022/10/23 04:22:16;;;;;;;8.70;5.80;;;;;;;11.12;100.00;96998.41;105147;1306;22984;-77
2022/10/23 04:24:47;;;;;;;7.70;6.60;;;;;;;11.08;100.00;96996.75;105079;1282;24266;-77
2022/10/23 04:27:18;;;;;;;90.70;35.60;;;;;;;11.07;100.00;97000.95;105137;1291;27237;-77
2022/10/23 04:29:49;;;;;;;17.30;10.00;;;;;;;11.01;100.00;97004.54;105183;1293;22466;-77
2022/10/23 04:32:20;;;;;;;7.40;5.90;;;;;;;10.97;100.00;97006.61;105208;1288;22462;-77
2022/10/23 04:34:53;;;;;;;67.40;31.20;;;;;;;10.98;100.00;97004.19;105234;1306;22512;-77
2022/10/23 04:37:24;;;;;;;114.50;48.00;;;;;;;10.92;100.00;97004.72;105160;1298;25323;-77
2022/10/23 04:39:56;;;;;;;108.70;49.20;;;;;;;10.84;100.00;97004.75;105222;1297;22487;-77
2022/10/23 04:42:27;;;;;;;48.20;23.90;;;;;;;10.78;100.00;97015.80;105190;1304;22460;-77
2022/10/23 04:44:58;;;;;;;22.20;12.80;;;;;;;10.73;100.00;97015.12;105192;1281;23744;-77
2022/10/23 04:47:29;;;;;;;23.10;13.90;;;;;;;10.69;100.00;97011.62;105105;1300;29998;-77
2022/10/23 04:50:02;;;;;;;18.10;10.10;;;;;;;10.63;100.00;97008.23;105158;1306;22476;-77
2022/10/23 04:52:33;;;;;;;10.20;8.10;;;;;;;10.59;100.00;97012.34;105162;1306;24247;-77
2022/10/23 04:55:06;;;;;;;9.10;7.50;;;;;;;10.59;100.00;97013.61;105247;1299;22504;-77
2022/10/23 04:57:37;;;;;;;8.70;6.80;;;;;;;10.58;100.00;97015.36;105108;1304;22466;-77
2022/10/23 05:00:13;;;;;;;10.10;7.50;;;;;;;10.56;100.00;97016.16;105112;1306;23166;-77
2022/10/23 05:02:45;;;;;;;10.50;8.50;;;;;;;10.51;100.00;97021.89;105121;1300;22503;-77
2022/10/23 05:05:16;;;;;;;11.20;7.70;;;;;;;10.52;100.00;97017.00;105138;1297;22463;-77
2022/10/23 05:07:47;;;;;;;8.10;6.40;;;;;;;10.54;100.00;97016.04;105027;1299;24345;-77
2022/10/23 05:10:19;;;;;;;8.60;6.40;;;;;;;10.61;100.00;97015.89;105156;1305;22525;-77
2022/10/23 05:12:50;;;;;;;11.70;7.80;;;;;;;10.74;100.00;97015.33;105108;1306;25352;-77
2022/10/23 05:15:21;;;;;;;7.90;7.10;;;;;;;10.85;100.00;97014.29;105105;1305;24271;-76
2022/10/23 05:17:56;;;;;;;7.20;5.90;;;;;;;10.93;100.00;97014.05;105034;1306;25461;-76
2022/10/23 05:20:35;;;;;;;7.80;5.60;;;;;;;10.93;100.00;97016.70;105088;1291;22552;-76
2022/10/23 05:23:11;;;;;;;7.20;6.00;;;;;;;10.94;100.00;97019.30;105096;1305;22483;-77
2022/10/23 05:25:43;;;;;;;7.00;6.30;;;;;;;11.00;100.00;97019.67;105079;1282;22467;-77
2022/10/23 05:28:14;;;;;;;7.50;6.40;;;;;;;11.04;100.00;97019.44;105166;1305;22598;-77
2022/10/23 05:30:45;;;;;;;7.50;6.40;;;;;;;11.05;100.00;97016.04;105150;1291;24724;-77
2022/10/23 05:33:16;;;;;;;7.60;6.20;;;;;;;11.04;100.00;97015.56;105135;1304;22489;-77
2022/10/23 05:35:48;;;;;;;6.70;5.70;;;;;;;11.04;100.00;97011.33;105102;1306;22585;-76
2022/10/23 05:38:20;;;;;;;7.20;5.70;;;;;;;11.08;100.00;97009.81;105127;1306;22622;-76
2022/10/23 05:40:53;;;;;;;6.00;5.00;;;;;;;11.15;100.00;97004.91;105157;1305;22460;-77
2022/10/23 05:43:25;;;;;;;13.40;7.50;;;;;;;11.25;100.00;97006.66;105105;1304;22470;-76
2022/10/23 05:45:57;;;;;;;6.40;5.00;;;;;;;11.33;100.00;97005.25;105142;1306;22462;-77
2022/10/23 05:48:28;;;;;;;8.60;5.80;;;;;;;11.48;100.00;97006.88;105134;1296;22586;-77
2022/10/23 05:51:04;;;;;;;6.90;5.40;;;;;;;11.64;100.00;97005.63;105125;1297;22502;-77
2022/10/23 05:53:36;;;;;;;6.00;4.60;;;;;;;11.78;99.80;97007.98;105088;1306;25368;-76
2022/10/23 05:56:09;;;;;;;6.20;4.90;;;;;;;11.88;99.12;97009.81;105039;1306;24349;-77
2022/10/23 05:58:40;;;;;;;5.80;5.00;;;;;;;11.85;98.46;97010.20;105145;1298;25236;-77
2022/10/23 06:01:14;;;;;;;6.80;5.30;;;;;;;11.83;98.16;97015.04;105138;1306;22574;-77
2022/10/23 06:03:45;;;;;;;6.40;5.40;;;;;;;11.89;97.88;97018.14;105149;1306;22505;-77
2022/10/23 06:06:17;;;;;;;6.30;5.30;;;;;;;11.95;97.60;97013.69;105035;1306;22556;-76
2022/10/23 06:08:48;;;;;;;5.20;4.70;;;;;;;12.10;97.53;97012.56;105095;1304;22536;-76
2022/10/23 06:11:20;;;;;;;6.60;4.50;;;;;;;12.56;97.29;97014.35;105134;1299;22486;-76
2022/10/23 06:13:51;;;;;;;6.30;4.30;;;;;;;13.03;96.07;97012.27;105107;1298;22471;-76
2022/10/23 06:16:25;;;;;;;5.60;4.30;;;;;;;13.41;95.10;97011.63;105115;1289;25408;-77
2022/10/23 06:18:57;;;;;;;6.10;3.90;;;;;;;13.85;93.40;97015.87;105219;1304;22489;-77
2022/10/23 06:21:28;;;;;;;4.60;3.80;;;;;;;13.82;91.49;97022.05;105160;1291;26428;-76
2022/10/23 06:24:00;;;;;;;5.10;3.90;;;;;;;13.79;91.14;97018.84;105195;1286;26149;-77
2022/10/23 06:26:34;;;;;;;4.40;3.60;;;;;;;13.85;90.52;97019.66;105159;1306;22482;-77
2022/10/23 06:29:06;;;;;;;4.50;3.50;;;;;;;13.94;89.37;97021.61;105183;1306;22480;-77
2022/10/23 06:31:38;;;;;;;3.90;3.40;;;;;;;13.99;88.80;97023.95;105174;1305;22488;-76
2022/10/23 06:34:12;;;;;;;3.70;3.10;;;;;;;14.19;88.80;97022.40;105162;1289;24486;-77
2022/10/23 06:36:43;;;;;;;6.50;3.30;;;;;;;14.51;88.04;97024.20;105151;1306;22501;-77
2022/10/23 06:39:15;;;;;;;4.30;3.50;;;;;;;14.82;87.16;97031.57;105200;1298;22586;-77
2022/10/23 06:41:46;;;;;;;4.60;3.50;;;;;;;15.17;86.62;97032.18;105171;1294;26408;-77
2022/10/23 06:44:18;;;;;;;3.00;2.60;;;;;;;15.21;84.12;97034.73;105196;1280;22546;-77
2022/10/23 06:46:50;;;;;;;3.40;2.90;;;;;;;15.00;83.31;97039.20;105155;1305;23963;-77
2022/10/23 06:49:21;;;;;;;3.70;3.10;;;;;;;14.91;82.81;97044.27;105189;1304;22595;-77
2022/10/23 06:51:52;;;;;;;4.00;3.20;;;;;;;14.79;82.04;97046.23;105145;1282;22459;-77
2022/10/23 06:54:23;;;;;;;3.30;2.70;;;;;;;14.81;82.33;97049.04;105189;1288;23964;-77
2022/10/23 06:56:57;;;;;;;3.40;2.90;;;;;;;15.06;82.59;97050.39;105105;1305;24599;-78
2022/10/23 06:59:28;;;;;;;4.00;3.20;;;;;;;15.53;81.71;97049.73;105101;1298;22463;-78
2022/10/23 07:02:00;;;;;;;4.40;3.10;;;;;;;15.52;80.69;97048.13;105113;1298;23435;-77
2022/10/23 07:04:32;;;;;;;4.80;3.10;;;;;;;15.61;80.81;97046.33;105102;1283;22471;-77
2022/10/23 07:07:03;;;;;;;3.80;3.30;;;;;;;15.48;79.64;97048.29;105077;1278;22514;-77
2022/10/23 07:09:35;;;;;;;3.40;2.70;;;;;;;15.50;80.35;97041.93;105219;1306;25669;-77
2022/10/23 07:12:06;;;;;;;4.00;3.30;;;;;;;15.51;78.89;97044.17;105218;1281;26587;-78
2022/10/23 07:14:39;;;;;;;4.40;3.00;;;;;;;15.72;79.29;97048.55;105212;1289;22838;-78
2022/10/23 07:17:11;;;;;;;3.20;2.70;;;;;;;16.12;77.64;97046.36;105127;1304;23754;-78
2022/10/23 07:19:43;;;;;;;3.60;2.70;;;;;;;16.13;76.51;97050.71;105192;1289;22572;-78
2022/10/23 07:22:14;;;;;;;3.10;2.60;;;;;;;16.33;75.64;97050.94;105238;1299;25370;-78
2022/10/23 07:24:46;;;;;;;3.90;3.00;;;;;;;16.51;74.91;97053.91;105141;1281;23780;-78
2022/10/23 07:27:17;;;;;;;3.00;2.40;;;;;;;16.62;73.40;97048.10;105127;1306;22653;-78
2022/10/23 07:29:51;;;;;;;4.20;2.70;;;;;;;16.80;72.96;97053.87;105187;1305;22496;-78
2022/10/23 07:32:27;;;;;;;5.40;4.50;;;;;;;17.08;72.45;97050.69;105190;1304;22466;-78
2022/10/23 07:34:59;;;;;;;3.20;2.60;;;;;;;17.56;72.07;97050.04;105171;1291;25433;-78
2022/10/23 07:37:31;;;;;;;4.70;3.20;;;;;;;17.81;71.33;97048.96;105133;1303;25665;-78
2022/10/23 07:40:02;;;;;;;4.30;2.60;;;;;;;18.19;69.25;97048.85;105174;1298;23400;-79
2022/10/23 07:42:33;;;;;;;3.10;2.50;;;;;;;18.68;69.21;97049.25;105196;1305;22473;-79
2022/10/23 07:45:06;;;;;;;3.90;2.80;;;;;;;19.18;68.38;97044.52;105187;1305;22479;-79
2022/10/23 07:47:37;;;;;;;3.90;2.30;;;;;;;19.56;66.99;97043.19;105102;1296;25478;-79
2022/10/23 07:50:11;;;;;;;2.50;2.00;;;;;;;20.05;65.25;97038.99;105095;1306;22458;-79
2022/10/23 07:52:44;;;;;;;2.80;2.00;;;;;;;20.17;64.12;97043.59;105126;1305;25224;-79
2022/10/23 07:55:15;;;;;;;3.70;1.80;;;;;;;20.29;62.37;97050.02;105096;1306;23984;-79
2022/10/23 07:57:49;;;;;;;1.80;1.60;;;;;;;19.91;60.44;97054.77;105112;1293;29289;-79
2022/10/23 08:00:20;;;;;;;2.40;1.70;;;;;;;19.39;59.98;97059.45;105228;1298;22469;-79
2022/10/23 08:02:51;;;;;;;2.90;1.40;;;;;;;19.24;60.71;97064.34;105179;1306;22508;-79
2022/10/23 08:05:23;;;;;;;3.80;1.90;;;;;;;19.32;61.26;97067.73;105170;1305;23883;-79
2022/10/23 08:07:54;;;;;;;2.70;1.70;;;;;;;18.64;60.50;97069.86;105126;1288;58769;-79
2022/10/23 08:10:25;;;;;;;2.70;1.90;;;;;;;17.59;62.07;97070.56;105201;1306;22477;-79
2022/10/23 08:12:56;;;;;;;5.00;1.90;;;;;;;16.85;63.28;97074.20;105220;1306;22551;-78
2022/10/23 08:15:28;;;;;;;3.20;2.10;;;;;;;16.42;65.54;97081.50;105176;1281;23835;-78
2022/10/23 08:17:59;;;;;;;3.70;2.30;;;;;;;16.69;66.65;97080.15;105127;1297;32805;-79
2022/10/23 08:20:30;;;;;;;3.00;2.50;;;;;;;16.92;66.86;97081.10;105204;1306;22520;-78
2022/10/23 08:23:02;;;;;;;3.80;2.90;;;;;;;16.94;67.14;97076.06;105149;1293;22467;-78
2022/10/23 08:25:34;;;;;;;4.50;2.70;;;;;;;16.85;67.21;97074.78;105135;1305;22478;-78
2022/10/23 08:28:05;;;;;;;4.80;3.20;;;;;;;16.80;67.89;97070.82;105107;1306;22470;-78
2022/10/23 08:30:36;;;;;;;4.20;2.90;;;;;;;16.70;67.81;97073.77;105074;1298;25447;-79
2022/10/23 08:33:08;;;;;;;3.90;2.80;;;;;;;16.80;69.40;97069.84;105119;1303;22494;-79
2022/10/23 08:35:40;;;;;;;3.90;2.60;;;;;;;16.96;68.77;97073.30;105084;1301;25268;-78
2022/10/23 08:38:12;;;;;;;3.50;3.20;;;;;;;16.82;68.97;97079.36;105186;1281;25357;-79
2022/10/23 08:40:49;;;;;;;4.20;2.90;;;;;;;16.70;69.46;97088.14;105172;1291;24366;-79
2022/10/23 08:43:31;;;;;;;4.10;2.80;;;;;;;16.41;69.70;97085.05;105220;1278;22499;-80
2022/10/23 08:46:08;;;;;;;5.80;3.30;;;;;;;16.25;70.23;97081.19;105136;1306;24534;-79
2022/10/23 08:48:43;;;;;;;4.80;3.40;;;;;;;16.26;71.17;97088.33;105154;1305;22464;-79
2022/10/23 08:51:20;;;;;;;4.60;3.30;;;;;;;16.32;71.66;97086.59;105199;1296;22477;-80
2022/10/23 08:53:56;;;;;;;4.40;3.20;;;;;;;16.51;71.39;97078.45;105237;1288;23584;-80
2022/10/23 08:56:32;;;;;;;6.00;3.30;;;;;;;16.44;71.57;97077.39;105077;1306;24504;-80
2022/10/23 08:59:10;;;;;;;3.90;3.20;;;;;;;16.65;71.77;97079.14;105123;1284;22506;-80
2022/10/23 09:01:46;;;;;;;3.70;2.90;;;;;;;16.62;71.66;97078.34;105091;1306;22507;-80
2022/10/23 09:04:18;;;;;;;4.40;2.90;;;;;;;16.49;71.19;97075.66;105101;1297;25245;-79
2022/10/23 09:06:57;;;;;;;5.40;3.50;;;;;;;16.54;72.11;97077.94;105084;1284;22458;-79
2022/10/23 09:09:53;;;;;;;3.40;2.80;;;;;;;16.50;71.72;97076.81;105181;1294;22480;-80
2022/10/23 09:12:27;;;;;;;4.30;3.30;;;;;;;16.43;71.82;97083.77;105207;1294;22644;-80
2022/10/23 09:15:07;;;;;;;4.10;3.20;;;;;;;16.46;71.68;97078.88;105176;1287;22465;-80
2022/10/23 09:17:40;;;;;;;3.60;2.50;;;;;;;16.62;72.36;97077.96;105064;1291;22522;-79
2022/10/23 09:20:18;;;;;;;3.70;2.80;;;;;;;16.68;72.55;97076.66;105099;1306;25394;-80
2022/10/23 09:22:53;;;;;;;5.50;3.40;;;;;;;16.85;72.63;97081.42;105099;1306;22538;-79
2022/10/23 09:25:28;;;;;;;6.10;3.00;;;;;;;16.94;71.95;97082.55;105111;1306;22497;-79
2022/10/23 09:28:01;;;;;;;5.20;3.10;;;;;;;17.05;72.06;97084.19;105111;1306;31364;-79
2022/10/23 09:30:35;;;;;;;4.20;3.10;;;;;;;17.23;71.25;97083.67;105096;1294;26576;-79
2022/10/23 09:33:18;;;;;;;6.20;3.00;;;;;;;17.36;71.15;97087.52;105115;1306;22509;-79
2022/10/23 09:35:58;;;;;;;4.20;2.90;;;;;;;17.61;70.39;97087.30;105097;1306;22512;-79
2022/10/23 09:38:34;;;;;;;3.30;2.50;;;;;;;17.69;69.48;97084.71;105178;1306;22901;-79
2022/10/23 09:41:13;;;;;;;4.10;2.60;;;;;;;17.75;69.06;97081.11;105214;1297;24929;-79
2022/10/23 09:43:44;;;;;;;3.80;2.50;;;;;;;17.68;69.35;97080.05;105198;1302;22942;-79
2022/10/23 09:46:16;;;;;;;3.80;2.60;;;;;;;17.64;68.87;97082.04;105095;1294;22480;-79
2022/10/23 09:48:57;;;;;;;4.40;2.90;;;;;;;17.63;68.20;97080.80;105214;1306;22726;-79
2022/10/23 09:51:28;;;;;;;3.50;2.50;;;;;;;17.56;68.75;97081.63;105180;1288;23263;-80
2022/10/23 09:54:01;;;;;;;5.70;2.70;;;;;;;17.75;69.44;97079.50;105172;1306;22486;-79
2022/10/23 09:56:36;;;;;;;3.30;2.70;;;;;;;17.88;68.16;97072.69;105128;1294;22473;-80
2022/10/23 09:59:22;;;;;;;5.50;3.00;;;;;;;17.78;67.35;97067.77;105087;1305;22469;-79
2022/10/23 10:01:58;;;;;;;4.50;2.80;;;;;;;17.77;67.16;97059.83;105077;1303;22457;-80
2022/10/23 10:04:38;;;;;;;3.30;2.80;;;;;;;17.86;67.35;97061.00;105115;1306;22477;-79
2022/10/23 10:07:21;;;;;;;4.90;2.50;;;;;;;17.91;66.30;97054.32;105107;1288;22469;-79
2022/10/23 10:09:53;;;;;;;;;;;;;;;17.86;66.83;97050.23;105182;1294;22460;-80
2022/10/23 10:12:50;;;;;;;4.80;3.00;;;;;;;17.91;66.84;97047.66;105261;1304;22465;-79
2022/10/23 10:15:27;;;;;;;4.80;3.10;;;;;;;18.00;66.98;97050.53;105190;1294;25322;-80
2022/10/23 10:18:14;;;;;;;4.60;3.10;;;;;;;18.09;66.60;97045.65;105087;1305;34390;-79
2022/10/23 10:21:07;;;;;;;4.20;2.70;;;;;;;18.10;66.53;97045.55;105078;1306;23958;-79
2022/10/23 10:23:47;;;;;;;5.50;2.40;;;;;;;18.04;66.48;97046.10;105081;1306;22477;-79
2022/10/23 10:26:30;;;;;;;3.80;2.60;;;;;;;18.07;66.70;97042.88;105040;1297;22463;-79
2022/10/23 10:29:12;;;;;;;4.30;2.60;;;;;;;17.99;66.56;97044.19;105102;1296;26436;-79
2022/10/23 10:31:56;;;;;;;5.70;2.60;;;;;;;17.95;66.55;97040.12;105098;1305;22489;-79
2022/10/23 10:34:37;;;;;;;3.50;2.60;;;;;;;17.90;65.75;97034.60;105075;1303;22500;-79
2022/10/23 10:37:21;;;;;;;3.50;2.30;;;;;;;17.72;65.46;97032.48;105052;1302;22471;-79
2022/10/23 10:40:00;;;;;;;3.80;2.60;;;;;;;17.67;65.76;97031.82;105109;1306;22469;-79
2022/10/23 10:42:47;;;;;;;6.00;3.10;;;;;;;17.73;66.14;97025.23;105101;1280;22599;-79
2022/10/23 10:45:31;;;;;;;3.90;2.50;;;;;;;17.80;66.07;97017.35;105115;1306;22496;-79
2022/10/23 10:48:21;;;;;;;2.40;1.80;;;;;;;17.93;65.83;97013.90;105187;1309;31463;-79
2022/10/23 10:50:55;;;;;;;3.10;1.70;;;;;;;18.07;64.83;97012.73;105167;1295;23358;-79
2022/10/23 10:53:34;;;;;;;2.70;1.90;;;;;;;18.13;64.84;97009.54;105193;1309;22509;-79
2022/10/23 10:56:10;;;;;;;3.50;1.70;;;;;;;18.24;64.65;97011.59;105095;1298;22472;-80
2022/10/23 10:58:48;;;;;;;3.30;1.60;;;;;;;18.27;62.47;97008.41;105200;1287;22478;-80
2022/10/23 11:01:26;;;;;;;2.50;1.50;;;;;;;18.12;61.07;97009.06;105250;1281;22520;-80
2022/10/23 11:04:04;;;;;;;3.00;1.70;;;;;;;18.04;60.85;97004.88;105177;1295;22466;-80
2022/10/23 11:06:39;;;;;;;2.90;1.70;;;;;;;18.06;61.18;97003.20;105104;1288;24223;-80
2022/10/23 11:09:20;;;;;;;2.60;1.40;;;;;;;18.09;60.43;97000.70;105079;1304;22883;-80
2022/10/23 11:11:55;;;;;;;4.20;1.50;;;;;;;18.02;59.98;96994.84;105088;1288;22588;-80
2022/10/23 11:14:27;;;;;;;2.10;1.20;;;;;;;18.01;59.68;96991.55;105067;1304;22477;-80
2022/10/23 11:17:05;;;;;;;2.70;1.50;;;;;;;18.02;59.50;96988.52;105057;1299;25226;-80
2022/10/23 11:19:41;;;;;;;2.60;1.40;;;;;;;18.05;59.03;96983.45;105104;1307;25363;-80
2022/10/23 11:22:25;;;;;;;1.90;1.30;;;;;;;18.05;58.98;96987.51;105100;1291;22460;-80
2022/10/23 11:25:35;;;;;;;1.70;1.20;;;;;;;18.06;58.49;96980.76;105076;1306;22516;-80
2022/10/23 11:28:30;;;;;;;4.80;1.80;;;;;;;18.15;59.46;96978.28;104906;1293;24468;-80
2022/10/23 11:31:16;;;;;;;2.30;1.50;;;;;;;18.24;58.77;96977.07;105018;1288;22466;-80
2022/10/23 11:34:17;;;;;;;2.00;1.40;;;;;;;18.32;58.71;96974.40;105054;1306;22935;-80
2022/10/23 11:36:54;;;;;;;2.40;1.30;;;;;;;18.36;57.91;96966.25;104924;1302;22901;-80
2022/10/23 11:39:30;;;;;;;2.40;1.40;;;;;;;18.35;58.09;96963.21;105200;1303;23719;-80
2022/10/23 11:42:16;;;;;;;2.20;1.40;;;;;;;18.43;58.89;96964.52;105170;1281;22453;-80
2022/10/23 11:44:50;;;;;;;1.90;1.10;;;;;;;18.54;58.70;96962.98;105178;1304;24288;-80
2022/10/23 11:47:43;;;;;;;1.80;1.30;;;;;;;18.60;58.23;96962.30;105109;1306;22888;-80
2022/10/23 11:50:25;;;;;;;2.50;1.60;;;;;;;18.69;58.52;96962.10;105195;1305;22477;-79
2022/10/23 11:53:09;;;;;;;3.00;1.50;;;;;;;18.79;58.36;96958.90;105232;1304;22580;-79
2022/10/23 11:55:56;;;;;;;3.10;1.60;;;;;;;18.83;58.14;96951.23;105130;1294;22461;-79